Terminal Aerodrome Forecast
Issued by NWS Pendleton, OR

Home | Current Version | Previous Version | Text Only | Print | Product List | Glossary On
Versions: 1 2 3 4 5 6 7 8 9 10 11 12 13 14 15 16 17 18
000
FTUS46 KPDT 240540
TAFPDT
TAF
KPDT 240540Z 2406/2506 22008KT P6SM SCT070 BKN110
     FM241000 28010KT P6SM -RA BKN040 OVC060
     FM241500 15007KT P6SM -RA SCT030 OVC050
     FM241800 25010KT P6SM -RA BKN030 OVC040
     FM250200 25012KT P6SM VCSH BKN050 BKN100=

USA.gov is the U.S. government's official web portal to all federal, state and local government web resources and services.